createdAt,value
2022-08-23T00:02:28.686Z,53.26
2022-08-23T00:05:09.158Z,53.30
2022-08-23T00:07:38.838Z,53.24
2022-08-23T00:10:08.956Z,53.81
2022-08-23T00:12:36.854Z,53.92
2022-08-23T00:15:08.840Z,53.70
2022-08-23T00:17:37.448Z,54.05
2022-08-23T00:20:11.603Z,54.36
2022-08-23T00:22:40.971Z,54.44
2022-08-23T00:25:11.662Z,54.76
2022-08-23T00:27:40.137Z,54.76
2022-08-23T00:30:12.383Z,55.11
2022-08-23T00:32:41.669Z,55.47
2022-08-23T00:35:11.724Z,55.59
2022-08-23T00:37:39.857Z,55.79
2022-08-23T00:40:10.597Z,55.96
2022-08-23T00:43:01.756Z,55.92
2022-08-23T00:45:55.445Z,56.31
2022-08-23T00:48:23.618Z,56.45
2022-08-23T00:50:57.439Z,56.49
2022-08-23T00:53:28.696Z,56.74
2022-08-23T00:56:01.074Z,56.79
2022-08-23T00:58:30.506Z,56.75
2022-08-23T01:01:02.013Z,56.86
2022-08-23T01:03:38.712Z,56.98
2022-08-23T01:06:12.718Z,56.78
2022-08-23T01:08:45.557Z,56.78
2022-08-23T01:11:17.903Z,56.67
2022-08-23T01:13:49.890Z,56.99
2022-08-23T01:16:25.323Z,56.96
2022-08-23T01:18:54.779Z,56.96
2022-08-23T01:21:28.480Z,57.04
2022-08-23T01:24:01.648Z,57.28
2022-08-23T01:26:31.943Z,57.51
2022-08-23T01:28:59.712Z,57.52
2022-08-23T01:31:28.044Z,57.60
2022-08-23T01:34:00.002Z,57.76
2022-08-23T01:36:28.709Z,58.13
2022-08-23T01:38:57.926Z,58.24
2022-08-23T01:41:26.192Z,58.27
2022-08-23T01:43:54.233Z,58.31
2022-08-23T01:46:24.984Z,58.59
2022-08-23T01:48:55.202Z,58.67
2022-08-23T01:51:23.951Z,58.90
2022-08-23T01:53:51.883Z,59.10
2022-08-23T01:56:28.112Z,59.29
2022-08-23T01:59:08.139Z,59.60
2022-08-23T02:01:36.362Z,59.65
2022-08-23T02:04:05.447Z,59.79
2022-08-23T02:06:33.833Z,59.95
2022-08-23T02:09:03.671Z,60.25
2022-08-23T02:11:36.197Z,60.23
2022-08-23T02:14:05.528Z,60.52
2022-08-23T02:16:36.123Z,60.49
2022-08-23T02:19:06.610Z,60.70
2022-08-23T02:21:36.690Z,60.69
2022-08-23T02:24:06.954Z,60.82
2022-08-23T02:26:38.118Z,60.95
2022-08-23T02:29:06.562Z,61.24
2022-08-23T02:31:35.294Z,61.25
2022-08-23T02:34:03.458Z,61.49
2022-08-23T02:36:31.516Z,61.68
2022-08-23T02:38:59.327Z,61.91
2022-08-23T02:41:27.654Z,62.11
2022-08-23T02:43:56.762Z,62.10
2022-08-23T02:46:24.563Z,62.36
2022-08-23T02:48:52.967Z,62.67
2022-08-23T02:51:21.185Z,62.81
2022-08-23T02:53:48.982Z,62.66
2022-08-23T02:56:21.907Z,62.83
2022-08-23T02:58:54.496Z,62.95
2022-08-23T03:01:27.528Z,63.00
2022-08-23T03:03:56.217Z,63.17
2022-08-23T03:06:26.306Z,63.22
2022-08-23T03:08:55.238Z,63.54
2022-08-23T03:11:23.612Z,63.48
2022-08-23T03:13:52.345Z,63.74
2022-08-23T03:16:20.694Z,63.70
2022-08-23T03:18:50.567Z,63.78
2022-08-23T03:21:19.031Z,63.89
2022-08-23T03:23:47.093Z,63.96
2022-08-23T03:26:16.675Z,64.26
2022-08-23T03:28:45.378Z,64.33
2022-08-23T03:31:13.925Z,64.29
2022-08-23T03:33:42.158Z,64.43
2022-08-23T03:36:13.098Z,64.75
2022-08-23T03:38:42.366Z,64.77
2022-08-23T03:41:10.653Z,65.01
2022-08-23T03:43:39.802Z,64.92
2022-08-23T03:46:08.663Z,64.97
2022-08-23T03:48:37.576Z,64.99
2022-08-23T03:51:05.607Z,65.22
2022-08-23T03:53:34.699Z,65.05
2022-08-23T03:56:02.515Z,65.42
2022-08-23T03:58:30.236Z,65.41
2022-08-23T04:00:58.484Z,65.44
2022-08-23T04:03:26.712Z,65.57
2022-08-23T04:05:54.529Z,65.74
2022-08-23T04:08:28.064Z,65.92
2022-08-23T04:11:03.035Z,65.89
2022-08-23T04:13:31.026Z,65.96
2022-08-23T04:15:59.241Z,66.04
2022-08-23T04:18:26.963Z,66.27
2022-08-23T04:20:54.775Z,66.35
2022-08-23T04:23:22.565Z,66.46
2022-08-23T04:25:50.452Z,66.60
2022-08-23T04:28:19.586Z,66.80
2022-08-23T04:30:47.321Z,66.81
2022-08-23T04:33:17.852Z,66.89
2022-08-23T04:35:46.333Z,67.06
2022-08-23T04:38:18.322Z,67.02
2022-08-23T04:41:11.378Z,67.11
2022-08-23T04:43:40.945Z,67.18
2022-08-23T04:46:10.178Z,66.94
2022-08-23T04:48:38.179Z,66.69
2022-08-23T04:51:06.021Z,66.51
2022-08-23T04:53:35.314Z,66.33
2022-08-23T04:56:04.161Z,66.26
2022-08-23T04:58:32.749Z,66.32
2022-08-23T05:01:04.871Z,66.01
2022-08-23T05:03:32.998Z,66.16
2022-08-23T05:06:01.192Z,65.74
2022-08-23T05:08:29.017Z,65.45
2022-08-23T05:10:56.782Z,65.10
2022-08-23T05:13:24.569Z,65.15
2022-08-23T05:15:52.605Z,65.13
2022-08-23T05:18:21.708Z,64.96
2022-08-23T05:20:52.474Z,64.72
2022-08-23T05:23:20.262Z,64.48
2022-08-23T05:25:53.138Z,64.54
2022-08-23T05:28:23.302Z,64.30
2022-08-23T05:31:00.620Z,64.22
2022-08-23T05:33:32.582Z,64.14
2022-08-23T05:36:01.786Z,63.77
2022-08-23T05:38:30.017Z,63.57
2022-08-23T05:41:01.968Z,63.47
2022-08-23T05:43:33.358Z,63.12
2022-08-23T05:46:03.767Z,62.19
2022-08-23T05:48:33.948Z,61.79
2022-08-23T05:51:10.916Z,61.22
2022-08-23T05:53:39.278Z,60.66
2022-08-23T05:56:15.372Z,60.42
2022-08-23T05:58:43.984Z,60.00
2022-08-23T06:01:13.449Z,59.84
2022-08-23T06:03:42.716Z,59.28
2022-08-23T06:06:12.886Z,59.08
2022-08-23T06:08:41.428Z,58.53
2022-08-23T06:11:12.242Z,58.54
2022-08-23T06:13:41.879Z,57.96
2022-08-23T06:16:14.956Z,57.59
2022-08-23T06:18:44.961Z,57.32
2022-08-23T06:21:15.765Z,57.15
2022-08-23T06:23:44.359Z,57.13
2022-08-23T06:26:13.477Z,56.93
2022-08-23T06:28:51.005Z,56.71
2022-08-23T06:31:40.793Z,56.65
2022-08-23T06:34:12.598Z,56.48
2022-08-23T06:36:40.905Z,56.29
2022-08-23T06:39:11.670Z,56.24
2022-08-23T06:41:39.731Z,56.37
2022-08-23T06:44:08.166Z,56.28
2022-08-23T06:46:38.447Z,56.32
2022-08-23T06:49:09.341Z,56.14
2022-08-23T06:51:39.580Z,56.16
2022-08-23T06:54:11.015Z,55.84
2022-08-23T06:56:41.228Z,55.71
2022-08-23T06:59:09.725Z,55.60
2022-08-23T07:01:46.227Z,55.51
2022-08-23T07:04:18.722Z,55.39
2022-08-23T07:06:47.445Z,55.13
2022-08-23T07:09:16.130Z,55.31
2022-08-23T07:11:43.890Z,55.12
2022-08-23T07:14:14.064Z,54.97
2022-08-23T07:16:44.570Z,54.77
2022-08-23T07:19:13.315Z,54.52
2022-08-23T07:21:43.423Z,54.32
2022-08-23T07:24:14.723Z,54.23
2022-08-23T07:26:45.344Z,53.98
2022-08-23T07:29:14.338Z,53.96
2022-08-23T07:31:44.607Z,53.94
2022-08-23T07:34:12.854Z,53.58
2022-08-23T07:36:44.454Z,53.36
2022-08-23T07:39:12.478Z,53.63
2022-08-23T07:41:41.543Z,53.71
2022-08-23T07:44:11.718Z,53.66
2022-08-23T07:46:43.480Z,53.58
2022-08-23T07:49:13.189Z,53.68
2022-08-23T07:51:43.962Z,53.37
2022-08-23T07:54:12.950Z,53.38
2022-08-23T07:56:41.545Z,52.72
2022-08-23T07:59:09.967Z,52.42
2022-08-23T08:01:38.018Z,52.18
2022-08-23T08:04:07.103Z,52.62
2022-08-23T08:06:39.317Z,52.48
2022-08-23T08:09:09.838Z,51.88
2022-08-23T08:11:37.878Z,51.31
2022-08-23T08:14:09.077Z,51.17
2022-08-23T08:16:38.727Z,51.23
2022-08-23T08:19:09.154Z,50.91
2022-08-23T08:21:38.848Z,50.92
2022-08-23T08:24:13.000Z,50.75
2022-08-23T08:26:41.092Z,50.59
2022-08-23T08:29:11.916Z,50.08
2022-08-23T08:31:40.805Z,49.48
2022-08-23T08:34:09.106Z,49.51
2022-08-23T08:36:39.160Z,49.18
2022-08-23T08:39:10.447Z,48.85
2022-08-23T08:42:04.093Z,47.12
2022-08-23T08:44:38.960Z,48.34
2022-08-23T08:47:11.543Z,48.37
2022-08-23T08:49:45.029Z,48.02
2022-08-23T08:52:18.646Z,47.88
2022-08-23T08:54:49.771Z,47.59
2022-08-23T08:57:27.800Z,47.52
2022-08-23T09:00:02.632Z,47.17
2022-08-23T09:02:34.993Z,47.13
2022-08-23T09:05:06.962Z,46.75
2022-08-23T09:07:45.515Z,46.18
2022-08-23T09:10:54.470Z,45.53
2022-08-23T09:13:46.595Z,45.76
2022-08-23T09:16:28.803Z,46.02
2022-08-23T09:18:56.927Z,45.22
2022-08-23T09:21:28.523Z,44.94
2022-08-23T09:24:00.983Z,45.14
2022-08-23T09:26:31.614Z,44.58
2022-08-23T09:29:03.110Z,44.86
2022-08-23T09:31:40.450Z,43.87
2022-08-23T09:34:08.677Z,43.85
2022-08-23T09:36:38.754Z,44.39
2022-08-23T09:39:08.438Z,44.70
2022-08-23T09:41:38.947Z,43.60
2022-08-23T09:44:16.255Z,42.38
2022-08-23T09:46:45.951Z,42.84
2022-08-23T09:49:26.209Z,42.40
2022-08-23T09:51:56.565Z,42.49
2022-08-23T09:54:30.041Z,42.18
2022-08-23T09:57:00.897Z,42.18
2022-08-23T09:59:39.368Z,41.75
2022-08-23T10:02:17.045Z,41.53
2022-08-23T10:04:47.199Z,41.20
2022-08-23T10:07:27.136Z,41.38
2022-08-23T10:09:55.229Z,40.95
2022-08-23T10:12:23.835Z,41.04
2022-08-23T10:14:51.573Z,40.43
2022-08-23T10:17:34.242Z,40.15
2022-08-23T10:20:17.063Z,40.55
2022-08-23T10:22:50.502Z,40.25
2022-08-23T10:25:37.248Z,40.35
2022-08-23T10:28:42.178Z,40.22
2022-08-23T10:31:23.048Z,39.19
2022-08-23T10:34:01.715Z,39.54
2022-08-23T10:36:34.884Z,39.78
2022-08-23T10:39:08.092Z,39.06
2022-08-23T10:41:53.477Z,38.12
2022-08-23T10:44:29.184Z,38.09
2022-08-23T10:47:12.078Z,37.34
2022-08-23T10:49:42.835Z,37.65
2022-08-23T10:52:16.368Z,38.43
2022-08-23T10:54:59.410Z,38.02
2022-08-23T10:57:33.995Z,37.76
2022-08-23T11:00:03.857Z,37.35
2022-08-23T11:02:38.207Z,37.63
2022-08-23T11:05:18.738Z,37.11
2022-08-23T11:07:59.118Z,36.52
2022-08-23T11:10:32.821Z,36.85
2022-08-23T11:13:03.815Z,36.86
2022-08-23T11:15:44.805Z,36.11
2022-08-23T11:18:39.346Z,36.52
2022-08-23T11:21:11.863Z,36.71
2022-08-23T11:23:55.467Z,35.83
2022-08-23T11:27:06.659Z,35.27
2022-08-23T11:29:40.522Z,35.97
2022-08-23T11:32:47.120Z,36.25
2022-08-23T11:35:43.222Z,36.44
2022-08-23T11:38:12.075Z,36.38
2022-08-23T11:41:06.361Z,36.02
2022-08-23T11:43:37.718Z,36.20
2022-08-23T11:46:32.328Z,36.32
2022-08-23T11:49:29.137Z,35.56
2022-08-23T11:52:07.011Z,35.56
2022-08-23T11:54:48.302Z,35.18
2022-08-23T11:57:33.543Z,35.40
2022-08-23T12:00:17.424Z,34.13
2022-08-23T12:03:02.004Z,34.01
2022-08-23T12:06:03.096Z,34.24
2022-08-23T12:08:55.790Z,34.32
2022-08-23T12:11:25.776Z,34.07
2022-08-23T12:14:37.278Z,33.46
2022-08-23T12:17:07.242Z,34.33
2022-08-23T12:19:42.445Z,34.42
2022-08-23T12:22:15.585Z,34.15
2022-08-23T12:24:52.367Z,33.94
2022-08-23T12:27:28.191Z,34.26
2022-08-23T12:30:02.828Z,33.72
2022-08-23T12:32:38.872Z,33.73
2022-08-23T12:35:30.130Z,33.44
2022-08-23T12:38:21.832Z,33.80
2022-08-23T12:40:54.470Z,33.95
2022-08-23T12:43:25.201Z,33.83
2022-08-23T12:45:57.020Z,34.06
2022-08-23T12:48:26.674Z,33.51
2022-08-23T12:50:56.577Z,33.24
2022-08-23T12:53:29.152Z,33.56
2022-08-23T12:56:05.175Z,33.85
2022-08-23T12:58:35.716Z,33.52
2022-08-23T13:01:07.433Z,33.03
2022-08-23T13:03:39.776Z,32.89
2022-08-23T13:06:10.690Z,32.81
2022-08-23T13:08:41.926Z,32.29
2022-08-23T13:11:12.782Z,32.07
2022-08-23T13:13:43.050Z,32.81
2022-08-23T13:16:42.256Z,32.24
2022-08-23T13:19:18.100Z,32.51
2022-08-23T13:21:46.211Z,32.76
2022-08-23T13:24:38.404Z,32.50
2022-08-23T13:27:21.906Z,32.91
2022-08-23T13:29:55.622Z,32.92
2022-08-23T13:32:33.523Z,32.98
2022-08-23T13:35:26.768Z,33.24
2022-08-23T13:37:58.021Z,33.75
2022-08-23T13:40:27.498Z,33.74
2022-08-23T13:43:00.615Z,33.98
2022-08-23T13:45:31.264Z,33.77
2022-08-23T13:48:03.192Z,34.28
2022-08-23T13:50:33.094Z,34.13
2022-08-23T13:53:14.323Z,34.16
2022-08-23T13:55:48.129Z,33.56
2022-08-23T13:58:28.720Z,33.35
2022-08-23T14:00:59.005Z,33.10
2022-08-23T14:03:28.632Z,33.58
2022-08-23T14:05:56.422Z,33.60
2022-08-23T14:08:24.717Z,33.21
2022-08-23T14:10:52.903Z,32.82
2022-08-23T14:13:25.449Z,33.60
2022-08-23T14:15:56.358Z,33.92
2022-08-23T14:18:24.710Z,34.13
2022-08-23T14:20:53.230Z,33.92
2022-08-23T14:23:21.005Z,34.51
2022-08-23T14:25:50.252Z,34.36
2022-08-23T14:28:18.826Z,34.46
2022-08-23T14:30:48.231Z,34.94
2022-08-23T14:33:16.055Z,34.32
2022-08-23T14:35:45.019Z,34.12
2022-08-23T14:38:15.138Z,34.66
2022-08-23T14:40:51.262Z,34.84
2022-08-23T14:43:19.137Z,34.44
2022-08-23T14:45:48.665Z,34.66
2022-08-23T14:48:16.464Z,34.73
2022-08-23T14:50:45.138Z,34.32
2022-08-23T14:53:14.983Z,34.35
2022-08-23T14:55:42.743Z,34.11
2022-08-23T14:58:10.492Z,34.62
2022-08-23T15:00:38.925Z,34.60
2022-08-23T15:03:10.394Z,34.87
2022-08-23T15:05:38.390Z,34.43
2022-08-23T15:08:06.167Z,34.93
2022-08-23T15:10:50.092Z,35.16
2022-08-23T15:13:28.425Z,34.98
2022-08-23T15:16:01.460Z,34.72
2022-08-23T15:18:31.782Z,34.58
2022-08-23T15:20:59.956Z,34.79
2022-08-23T15:23:27.854Z,34.72
2022-08-23T15:25:57.774Z,34.59
2022-08-23T15:28:26.153Z,34.78
2022-08-23T15:30:54.074Z,34.39
2022-08-23T15:33:26.941Z,34.29
2022-08-23T15:35:57.141Z,34.46
2022-08-23T15:38:26.322Z,34.29
2022-08-23T15:40:55.703Z,34.62
2022-08-23T15:43:33.892Z,34.46
2022-08-23T15:46:06.054Z,34.47
2022-08-23T15:48:37.903Z,34.23
2022-08-23T15:51:07.242Z,34.59
2022-08-23T15:53:35.126Z,34.40
2022-08-23T15:56:05.719Z,34.75
2022-08-23T15:58:33.741Z,34.90
2022-08-23T16:01:01.594Z,34.77
2022-08-23T16:03:29.528Z,34.69
2022-08-23T16:05:57.815Z,34.97
2022-08-23T16:08:29.594Z,34.67
2022-08-23T16:10:57.431Z,35.14
2022-08-23T16:13:26.573Z,35.36
2022-08-23T16:15:54.506Z,35.63
2022-08-23T16:18:22.342Z,35.33
2022-08-23T16:20:50.266Z,35.54
2022-08-23T16:23:22.323Z,35.86
2022-08-23T16:25:51.632Z,35.72
2022-08-23T16:28:19.430Z,35.72
2022-08-23T16:30:47.209Z,35.53
2022-08-23T16:33:15.152Z,35.75
2022-08-23T16:35:42.870Z,36.27
2022-08-23T16:38:10.628Z,36.07
2022-08-23T16:40:38.352Z,36.08
2022-08-23T16:43:07.386Z,36.04
2022-08-23T16:45:35.108Z,36.21
2022-08-23T16:48:02.927Z,36.44
2022-08-23T16:50:32.851Z,35.85
2022-08-23T16:53:05.019Z,36.14
2022-08-23T16:55:35.133Z,36.32
2022-08-23T16:58:03.215Z,36.35
2022-08-23T17:00:32.822Z,36.36
2022-08-23T17:03:01.273Z,36.47
2022-08-23T17:05:29.752Z,36.49
2022-08-23T17:07:57.534Z,36.57
2022-08-23T17:10:25.484Z,36.65
2022-08-23T17:12:57.052Z,36.58
2022-08-23T17:15:27.368Z,36.61
2022-08-23T17:17:57.133Z,36.80
2022-08-23T17:20:27.160Z,36.71
2022-08-23T17:22:55.633Z,36.76
2022-08-23T17:25:24.179Z,36.78
2022-08-23T17:27:54.311Z,36.86
2022-08-23T17:30:24.905Z,37.03
2022-08-23T17:32:54.426Z,36.87
2022-08-23T17:35:26.719Z,36.96
2022-08-23T17:37:55.022Z,37.01
2022-08-23T17:40:31.596Z,37.08
2022-08-23T17:43:00.966Z,37.07
2022-08-23T17:45:29.691Z,37.19
2022-08-23T17:47:57.490Z,37.11
2022-08-23T17:50:26.724Z,37.61
2022-08-23T17:52:54.992Z,37.66
2022-08-23T17:55:22.880Z,37.68
2022-08-23T17:57:52.369Z,37.63
2022-08-23T18:00:24.006Z,37.39
2022-08-23T18:02:51.790Z,37.71
2022-08-23T18:05:19.843Z,38.03
2022-08-23T18:07:48.914Z,37.75
2022-08-23T18:10:16.661Z,38.19
2022-08-23T18:12:44.483Z,38.11
2022-08-23T18:15:12.828Z,38.21
2022-08-23T18:17:41.164Z,38.13
2022-08-23T18:20:13.752Z,38.19
2022-08-23T18:22:41.681Z,38.47
2022-08-23T18:25:13.334Z,38.66
2022-08-23T18:27:59.045Z,39.00
2022-08-23T18:30:27.038Z,38.72
2022-08-23T18:32:54.899Z,38.73
2022-08-23T18:35:25.766Z,39.34
2022-08-23T18:37:54.360Z,39.22
2022-08-23T18:40:23.649Z,39.47
2022-08-23T18:42:51.961Z,39.53
2022-08-23T18:45:20.079Z,40.04
2022-08-23T18:47:49.778Z,40.05
2022-08-23T18:50:18.826Z,40.17
2022-08-23T18:52:46.654Z,40.32
2022-08-23T18:55:16.096Z,40.47
2022-08-23T18:57:45.210Z,40.91
2022-08-23T19:00:14.025Z,40.70
2022-08-23T19:02:41.834Z,41.17
2022-08-23T19:05:10.208Z,40.92
2022-08-23T19:07:37.906Z,41.53
2022-08-23T19:10:06.475Z,41.56
2022-08-23T19:12:34.318Z,41.47
2022-08-23T19:15:03.413Z,41.71
2022-08-23T19:17:31.116Z,42.03
2022-08-23T19:19:59.653Z,42.20
2022-08-23T19:22:27.523Z,42.18
2022-08-23T19:24:55.862Z,42.54
2022-08-23T19:27:23.538Z,42.46
2022-08-23T19:29:51.362Z,42.66
2022-08-23T19:32:20.663Z,42.44
2022-08-23T19:34:48.583Z,43.07
2022-08-23T19:37:20.672Z,43.07
2022-08-23T19:39:52.076Z,42.90
2022-08-23T19:42:20.830Z,43.08
2022-08-23T19:44:49.550Z,43.31
2022-08-23T19:47:19.841Z,43.30
2022-08-23T19:49:51.032Z,43.54
2022-08-23T19:52:18.833Z,43.80
2022-08-23T19:54:46.573Z,44.11
2022-08-23T19:57:14.566Z,44.28
2022-08-23T19:59:42.567Z,44.20
2022-08-23T20:02:13.028Z,44.61
2022-08-23T20:04:41.007Z,44.79
2022-08-23T20:07:10.111Z,44.88
2022-08-23T20:09:37.985Z,45.06
2022-08-23T20:12:06.104Z,45.28
2022-08-23T20:14:34.241Z,45.46
2022-08-23T20:17:04.410Z,45.76
2022-08-23T20:19:32.286Z,45.93
2022-08-23T20:22:20.268Z,46.20
2022-08-23T20:24:52.204Z,46.11
2022-08-23T20:27:25.365Z,46.35
2022-08-23T20:29:58.904Z,46.56
2022-08-23T20:32:26.843Z,46.77
2022-08-23T20:34:54.658Z,46.80
2022-08-23T20:37:22.609Z,47.08
2022-08-23T20:39:52.270Z,47.14
2022-08-23T20:42:20.325Z,47.14
2022-08-23T20:44:48.278Z,47.26
2022-08-23T20:47:16.100Z,47.42
2022-08-23T20:49:44.153Z,47.35
2022-08-23T20:52:11.983Z,47.72
2022-08-23T20:54:40.156Z,47.64
2022-08-23T20:57:09.283Z,47.74
2022-08-23T20:59:40.942Z,47.94
2022-08-23T21:02:11.705Z,47.84
2022-08-23T21:04:40.251Z,47.91
2022-08-23T21:07:09.277Z,48.15
2022-08-23T21:09:37.162Z,48.12
2022-08-23T21:12:06.023Z,48.57
2022-08-23T21:14:35.279Z,48.97
2022-08-23T21:17:03.074Z,49.45
2022-08-23T21:19:31.308Z,49.37
2022-08-23T21:21:59.383Z,49.58
2022-08-23T21:24:27.255Z,49.88
2022-08-23T21:26:54.969Z,49.94
2022-08-23T21:29:22.847Z,50.03
2022-08-23T21:31:51.971Z,50.24
2022-08-23T21:34:19.822Z,50.45
2022-08-23T21:36:47.684Z,50.62
2022-08-23T21:39:15.407Z,50.67
2022-08-23T21:41:44.768Z,50.89
2022-08-23T21:44:15.273Z,51.22
2022-08-23T21:46:43.273Z,51.05
2022-08-23T21:49:12.996Z,51.19
2022-08-23T21:51:41.498Z,51.36
2022-08-23T21:54:10.652Z,51.55
2022-08-23T21:56:39.476Z,51.35
2022-08-23T21:59:10.013Z,51.63
2022-08-23T22:01:38.054Z,52.01
2022-08-23T22:04:07.941Z,52.17
2022-08-23T22:06:38.682Z,52.53
2022-08-23T22:09:08.269Z,52.86
2022-08-23T22:11:40.579Z,52.83
2022-08-23T22:14:08.803Z,53.13
2022-08-23T22:16:37.226Z,53.59
2022-08-23T22:19:05.411Z,53.90
2022-08-23T22:21:35.409Z,53.95
2022-08-23T22:24:05.652Z,54.07
2022-08-23T22:26:33.503Z,54.26
2022-08-23T22:29:01.313Z,54.42
2022-08-23T22:31:29.412Z,54.63
2022-08-23T22:33:57.414Z,54.63
2022-08-23T22:36:25.501Z,54.52
2022-08-23T22:38:53.356Z,54.50
2022-08-23T22:41:27.129Z,54.83
2022-08-23T22:43:54.951Z,54.66
2022-08-23T22:46:23.629Z,54.80
2022-08-23T22:48:51.471Z,54.87
2022-08-23T22:51:21.080Z,54.88
2022-08-23T22:53:51.312Z,55.32
2022-08-23T22:56:21.703Z,55.14
2022-08-23T22:58:52.733Z,55.57
2022-08-23T23:01:23.217Z,55.63
2022-08-23T23:03:52.925Z,55.77
2022-08-23T23:06:21.288Z,56.16
2022-08-23T23:08:49.448Z,55.84
2022-08-23T23:11:18.351Z,56.19
2022-08-23T23:13:46.300Z,56.20
2022-08-23T23:16:18.308Z,56.37
2022-08-23T23:19:08.054Z,56.25
2022-08-23T23:21:36.303Z,56.48
2022-08-23T23:24:04.896Z,56.36
2022-08-23T23:26:32.832Z,56.41
2022-08-23T23:29:00.730Z,56.71
2022-08-23T23:31:29.995Z,56.85
2022-08-23T23:33:58.243Z,57.05
2022-08-23T23:36:26.035Z,57.15
2022-08-23T23:38:54.142Z,57.31
2022-08-23T23:41:22.031Z,57.55
2022-08-23T23:43:50.062Z,57.69
2022-08-23T23:46:20.969Z,57.56
2022-08-23T23:48:51.258Z,57.95
2022-08-23T23:51:22.227Z,57.66
2022-08-23T23:53:50.330Z,57.98
2022-08-23T23:56:19.830Z,58.22
2022-08-23T23:58:48.779Z,58.21
